sensor_id;sensor_type;location;lat;lon;timestamp;P1;durP1;ratioP1;P2;durP2;ratioP2
13368;SDS011;6753;52.520;13.450;2023-07-29T00:00:02;217.82;;;134.05;;
13368;SDS011;6753;52.520;13.450;2023-07-29T00:00:13;223.55;;;137.13;;
13368;SDS011;6753;52.520;13.450;2023-07-29T00:00:24;220.73;;;135.07;;
13368;SDS011;6753;52.520;13.450;2023-07-29T00:00:37;223.20;;;135.15;;
13368;SDS011;6753;52.520;13.450;2023-07-29T00:00:49;224.23;;;133.57;;
13368;SDS011;6753;52.520;13.450;2023-07-29T00:01:00;219.60;;;130.77;;
13368;SDS011;6753;52.520;13.450;2023-07-29T00:01:11;219.07;;;131.70;;
13368;SDS011;6753;52.520;13.450;2023-07-29T00:01:22;218.20;;;131.73;;
13368;SDS011;6753;52.520;13.450;2023-07-29T00:01:33;218.32;;;131.60;;
13368;SDS011;6753;52.520;13.450;2023-07-29T00:01:44;220.55;;;131.30;;
13368;SDS011;6753;52.520;13.450;2023-07-29T00:01:55;222.32;;;132.82;;
13368;SDS011;6753;52.520;13.450;2023-07-29T00:02:06;227.07;;;135.65;;
13368;SDS011;6753;52.520;13.450;2023-07-29T00:02:17;219.60;;;132.50;;
13368;SDS011;6753;52.520;13.450;2023-07-29T00:02:30;225.77;;;135.88;;
13368;SDS011;6753;52.520;13.450;2023-07-29T00:02:42;224.07;;;137.10;;
13368;SDS011;6753;52.520;13.450;2023-07-29T00:02:53;225.55;;;137.18;;
13368;SDS011;6753;52.520;13.450;2023-07-29T00:03:04;218.27;;;132.93;;
13368;SDS011;6753;52.520;13.450;2023-07-29T00:03:15;225.60;;;135.57;;
13368;SDS011;6753;52.520;13.450;2023-07-29T00:03:26;224.30;;;134.02;;
13368;SDS011;6753;52.520;13.450;2023-07-29T00:03:37;223.50;;;132.68;;
13368;SDS011;6753;52.520;13.450;2023-07-29T00:03:48;216.30;;;129.90;;
13368;SDS011;6753;52.520;13.450;2023-07-29T00:03:58;217.90;;;130.98;;
13368;SDS011;6753;52.520;13.450;2023-07-29T00:04:11;212.55;;;128.40;;
13368;SDS011;6753;52.520;13.450;2023-07-29T00:04:22;207.82;;;125.47;;
13368;SDS011;6753;52.520;13.450;2023-07-29T00:04:32;212.57;;;129.13;;
13368;SDS011;6753;52.520;13.450;2023-07-29T00:04:43;217.73;;;132.80;;
13368;SDS011;6753;52.520;13.450;2023-07-29T00:04:54;226.60;;;136.13;;
13368;SDS011;6753;52.520;13.450;2023-07-29T00:05:05;236.23;;;141.82;;
13368;SDS011;6753;52.520;13.450;2023-07-29T00:05:16;245.48;;;145.98;;
13368;SDS011;6753;52.520;13.450;2023-07-29T00:05:27;250.25;;;150.00;;
13368;SDS011;6753;52.520;13.450;2023-07-29T00:05:37;258.03;;;153.73;;
13368;SDS011;6753;52.520;13.450;2023-07-29T00:05:48;263.23;;;157.38;;
13368;SDS011;6753;52.520;13.450;2023-07-29T00:06:00;260.95;;;155.73;;
13368;SDS011;6753;52.520;13.450;2023-07-29T00:06:11;250.07;;;151.48;;
13368;SDS011;6753;52.520;13.450;2023-07-29T00:06:23;243.82;;;148.98;;
13368;SDS011;6753;52.520;13.450;2023-07-29T00:06:36;227.98;;;140.45;;
13368;SDS011;6753;52.520;13.450;2023-07-29T00:06:47;214.70;;;132.85;;
13368;SDS011;6753;52.520;13.450;2023-07-29T00:06:58;207.68;;;129.55;;
13368;SDS011;6753;52.520;13.450;2023-07-29T00:07:09;213.87;;;131.57;;
13368;SDS011;6753;52.520;13.450;2023-07-29T00:07:19;223.48;;;137.57;;
13368;SDS011;6753;52.520;13.450;2023-07-29T00:07:30;231.65;;;141.18;;
13368;SDS011;6753;52.520;13.450;2023-07-29T00:07:42;234.38;;;143.43;;
13368;SDS011;6753;52.520;13.450;2023-07-29T00:07:53;243.95;;;148.05;;
13368;SDS011;6753;52.520;13.450;2023-07-29T00:08:04;246.00;;;150.03;;
13368;SDS011;6753;52.520;13.450;2023-07-29T00:08:15;244.65;;;148.57;;
13368;SDS011;6753;52.520;13.450;2023-07-29T00:08:25;232.13;;;140.52;;
13368;SDS011;6753;52.520;13.450;2023-07-29T00:08:36;231.68;;;140.35;;
13368;SDS011;6753;52.520;13.450;2023-07-29T00:08:47;230.23;;;139.80;;
13368;SDS011;6753;52.520;13.450;2023-07-29T00:08:58;229.68;;;138.13;;
13368;SDS011;6753;52.520;13.450;2023-07-29T00:09:09;232.70;;;139.65;;
13368;SDS011;6753;52.520;13.450;2023-07-29T00:09:19;238.10;;;143.00;;
13368;SDS011;6753;52.520;13.450;2023-07-29T00:09:31;236.90;;;143.00;;
13368;SDS011;6753;52.520;13.450;2023-07-29T00:09:42;231.03;;;140.07;;
13368;SDS011;6753;52.520;13.450;2023-07-29T00:09:53;218.68;;;134.57;;
13368;SDS011;6753;52.520;13.450;2023-07-29T00:10:04;212.93;;;132.02;;
13368;SDS011;6753;52.520;13.450;2023-07-29T00:10:15;215.60;;;133.05;;
13368;SDS011;6753;52.520;13.450;2023-07-29T00:10:26;221.83;;;135.83;;
13368;SDS011;6753;52.520;13.450;2023-07-29T00:10:37;230.00;;;140.68;;
13368;SDS011;6753;52.520;13.450;2023-07-29T00:10:48;253.18;;;152.38;;
13368;SDS011;6753;52.520;13.450;2023-07-29T00:10:59;272.63;;;164.27;;
13368;SDS011;6753;52.520;13.450;2023-07-29T00:11:10;267.70;;;163.30;;
13368;SDS011;6753;52.520;13.450;2023-07-29T00:11:22;266.10;;;162.07;;
13368;SDS011;6753;52.520;13.450;2023-07-29T00:11:32;280.03;;;172.03;;
13368;SDS011;6753;52.520;13.450;2023-07-29T00:11:45;289.58;;;178.60;;
13368;SDS011;6753;52.520;13.450;2023-07-29T00:11:56;291.85;;;179.82;;
13368;SDS011;6753;52.520;13.450;2023-07-29T00:12:07;291.92;;;180.05;;
13368;SDS011;6753;52.520;13.450;2023-07-29T00:12:18;314.08;;;194.82;;
13368;SDS011;6753;52.520;13.450;2023-07-29T00:12:28;312.17;;;193.27;;
13368;SDS011;6753;52.520;13.450;2023-07-29T00:12:39;316.67;;;195.85;;
13368;SDS011;6753;52.520;13.450;2023-07-29T00:12:50;314.48;;;194.90;;
13368;SDS011;6753;52.520;13.450;2023-07-29T00:13:01;357.55;;;233.52;;
13368;SDS011;6753;52.520;13.450;2023-07-29T00:13:12;354.35;;;216.73;;
13368;SDS011;6753;52.520;13.450;2023-07-29T00:13:22;348.23;;;212.77;;
13368;SDS011;6753;52.520;13.450;2023-07-29T00:13:34;349.35;;;216.20;;
13368;SDS011;6753;52.520;13.450;2023-07-29T00:13:45;343.98;;;213.70;;
13368;SDS011;6753;52.520;13.450;2023-07-29T00:13:57;342.42;;;211.52;;
13368;SDS011;6753;52.520;13.450;2023-07-29T00:14:08;324.47;;;200.07;;
13368;SDS011;6753;52.520;13.450;2023-07-29T00:14:18;309.48;;;190.30;;
13368;SDS011;6753;52.520;13.450;2023-07-29T00:14:29;290.80;;;176.57;;
13368;SDS011;6753;52.520;13.450;2023-07-29T00:14:40;281.58;;;173.10;;
13368;SDS011;6753;52.520;13.450;2023-07-29T00:14:51;325.40;;;204.50;;
13368;SDS011;6753;52.520;13.450;2023-07-29T00:15:01;326.98;;;206.15;;
13368;SDS011;6753;52.520;13.450;2023-07-29T00:15:12;315.50;;;197.43;;
13368;SDS011;6753;52.520;13.450;2023-07-29T00:15:23;310.42;;;193.18;;
13368;SDS011;6753;52.520;13.450;2023-07-29T00:15:35;310.42;;;193.25;;
13368;SDS011;6753;52.520;13.450;2023-07-29T00:15:46;310.70;;;192.20;;
13368;SDS011;6753;52.520;13.450;2023-07-29T00:15:59;303.42;;;188.50;;
13368;SDS011;6753;52.520;13.450;2023-07-29T00:16:10;306.02;;;189.88;;
13368;SDS011;6753;52.520;13.450;2023-07-29T00:16:21;300.93;;;187.40;;
13368;SDS011;6753;52.520;13.450;2023-07-29T00:16:32;300.50;;;187.05;;
13368;SDS011;6753;52.520;13.450;2023-07-29T00:16:43;297.98;;;186.13;;
13368;SDS011;6753;52.520;13.450;2023-07-29T00:16:53;291.73;;;180.52;;
13368;SDS011;6753;52.520;13.450;2023-07-29T00:17:04;285.33;;;175.93;;
13368;SDS011;6753;52.520;13.450;2023-07-29T00:17:15;279.98;;;170.75;;
13368;SDS011;6753;52.520;13.450;2023-07-29T00:17:27;279.30;;;170.68;;
13368;SDS011;6753;52.520;13.450;2023-07-29T00:17:39;266.55;;;161.65;;
13368;SDS011;6753;52.520;13.450;2023-07-29T00:17:50;252.82;;;153.82;;
13368;SDS011;6753;52.520;13.450;2023-07-29T00:18:01;239.25;;;147.82;;
13368;SDS011;6753;52.520;13.450;2023-07-29T00:18:12;229.85;;;142.48;;
13368;SDS011;6753;52.520;13.450;2023-07-29T00:18:23;222.70;;;137.43;;
13368;SDS011;6753;52.520;13.450;2023-07-29T00:18:34;224.80;;;138.05;;
13368;SDS011;6753;52.520;13.450;2023-07-29T00:18:45;238.52;;;145.45;;
13368;SDS011;6753;52.520;13.450;2023-07-29T00:18:55;246.73;;;149.90;;
13368;SDS011;6753;52.520;13.450;2023-07-29T00:19:06;248.50;;;151.40;;
13368;SDS011;6753;52.520;13.450;2023-07-29T00:19:17;251.38;;;154.00;;
13368;SDS011;6753;52.520;13.450;2023-07-29T00:19:30;257.35;;;157.50;;
13368;SDS011;6753;52.520;13.450;2023-07-29T00:19:40;241.82;;;148.63;;
13368;SDS011;6753;52.520;13.450;2023-07-29T00:19:51;234.75;;;144.23;;
13368;SDS011;6753;52.520;13.450;2023-07-29T00:20:02;240.18;;;146.77;;
13368;SDS011;6753;52.520;13.450;2023-07-29T00:20:15;245.95;;;149.40;;
13368;SDS011;6753;52.520;13.450;2023-07-29T00:20:26;241.85;;;148.30;;
13368;SDS011;6753;52.520;13.450;2023-07-29T00:20:37;240.77;;;147.07;;
13368;SDS011;6753;52.520;13.450;2023-07-29T00:20:47;245.77;;;148.90;;
13368;SDS011;6753;52.520;13.450;2023-07-29T00:20:58;247.38;;;150.13;;
13368;SDS011;6753;52.520;13.450;2023-07-29T00:21:10;245.55;;;150.07;;
13368;SDS011;6753;52.520;13.450;2023-07-29T00:21:21;246.23;;;150.40;;
13368;SDS011;6753;52.520;13.450;2023-07-29T00:21:32;252.40;;;153.87;;
13368;SDS011;6753;52.520;13.450;2023-07-29T00:21:42;253.93;;;155.63;;
13368;SDS011;6753;52.520;13.450;2023-07-29T00:21:53;250.77;;;154.35;;
13368;SDS011;6753;52.520;13.450;2023-07-29T00:22:04;254.30;;;156.07;;
13368;SDS011;6753;52.520;13.450;2023-07-29T00:22:15;249.55;;;153.85;;
13368;SDS011;6753;52.520;13.450;2023-07-29T00:22:26;246.00;;;152.43;;
13368;SDS011;6753;52.520;13.450;2023-07-29T00:22:36;242.85;;;149.63;;
13368;SDS011;6753;52.520;13.450;2023-07-29T00:22:47;241.63;;;148.73;;
13368;SDS011;6753;52.520;13.450;2023-07-29T00:22:59;234.18;;;143.90;;
13368;SDS011;6753;52.520;13.450;2023-07-29T00:23:16;226.95;;;138.18;;
13368;SDS011;6753;52.520;13.450;2023-07-29T00:23:28;218.85;;;133.18;;
13368;SDS011;6753;52.520;13.450;2023-07-29T00:23:39;219.68;;;134.00;;
13368;SDS011;6753;52.520;13.450;2023-07-29T00:23:50;222.77;;;136.10;;
13368;SDS011;6753;52.520;13.450;2023-07-29T00:24:01;224.77;;;138.68;;
13368;SDS011;6753;52.520;13.450;2023-07-29T00:24:12;235.50;;;145.60;;
13368;SDS011;6753;52.520;13.450;2023-07-29T00:24:23;293.90;;;182.65;;
13368;SDS011;6753;52.520;13.450;2023-07-29T00:24:33;276.23;;;169.90;;
13368;SDS011;6753;52.520;13.450;2023-07-29T00:24:50;325.50;;;196.95;;
13368;SDS011;6753;52.520;13.450;2023-07-29T00:25:02;319.25;;;193.15;;
13368;SDS011;6753;52.520;13.450;2023-07-29T00:25:13;298.60;;;181.75;;
13368;SDS011;6753;52.520;13.450;2023-07-29T00:25:24;294.77;;;178.70;;
13368;SDS011;6753;52.520;13.450;2023-07-29T00:25:34;297.42;;;180.75;;
13368;SDS011;6753;52.520;13.450;2023-07-29T00:25:45;287.47;;;175.83;;
13368;SDS011;6753;52.520;13.450;2023-07-29T00:25:56;287.05;;;177.20;;
13368;SDS011;6753;52.520;13.450;2023-07-29T00:26:09;333.40;;;200.35;;
13368;SDS011;6753;52.520;13.450;2023-07-29T00:26:20;341.27;;;206.23;;
13368;SDS011;6753;52.520;13.450;2023-07-29T00:26:32;306.75;;;184.70;;
13368;SDS011;6753;52.520;13.450;2023-07-29T00:26:42;293.43;;;176.30;;
13368;SDS011;6753;52.520;13.450;2023-07-29T00:26:53;292.48;;;177.10;;
13368;SDS011;6753;52.520;13.450;2023-07-29T00:27:04;279.48;;;168.68;;
13368;SDS011;6753;52.520;13.450;2023-07-29T00:27:15;269.88;;;162.98;;
13368;SDS011;6753;52.520;13.450;2023-07-29T00:27:26;281.15;;;171.65;;
13368;SDS011;6753;52.520;13.450;2023-07-29T00:27:37;298.55;;;184.32;;
13368;SDS011;6753;52.520;13.450;2023-07-29T00:27:48;306.73;;;189.80;;
13368;SDS011;6753;52.520;13.450;2023-07-29T00:27:59;312.10;;;193.55;;
13368;SDS011;6753;52.520;13.450;2023-07-29T00:28:10;309.95;;;192.48;;
13368;SDS011;6753;52.520;13.450;2023-07-29T00:28:21;300.25;;;187.32;;
13368;SDS011;6753;52.520;13.450;2023-07-29T00:28:33;298.25;;;185.15;;
13368;SDS011;6753;52.520;13.450;2023-07-29T00:28:44;287.25;;;176.55;;
13368;SDS011;6753;52.520;13.450;2023-07-29T00:28:55;289.13;;;178.67;;
13368;SDS011;6753;52.520;13.450;2023-07-29T00:29:05;296.38;;;183.48;;
13368;SDS011;6753;52.520;13.450;2023-07-29T00:29:17;300.83;;;186.40;;
13368;SDS011;6753;52.520;13.450;2023-07-29T00:29:27;291.80;;;181.10;;
13368;SDS011;6753;52.520;13.450;2023-07-29T00:29:38;285.27;;;177.57;;
13368;SDS011;6753;52.520;13.450;2023-07-29T00:29:49;288.10;;;181.20;;
13368;SDS011;6753;52.520;13.450;2023-07-29T00:30:00;279.65;;;177.07;;
13368;SDS011;6753;52.520;13.450;2023-07-29T00:30:11;277.10;;;176.25;;
13368;SDS011;6753;52.520;13.450;2023-07-29T00:30:23;283.92;;;180.23;;
13368;SDS011;6753;52.520;13.450;2023-07-29T00:30:33;291.33;;;185.05;;
13368;SDS011;6753;52.520;13.450;2023-07-29T00:30:44;297.02;;;185.85;;
13368;SDS011;6753;52.520;13.450;2023-07-29T00:30:55;294.77;;;181.37;;
13368;SDS011;6753;52.520;13.450;2023-07-29T00:31:06;292.52;;;179.20;;
13368;SDS011;6753;52.520;13.450;2023-07-29T00:31:16;286.30;;;173.55;;
13368;SDS011;6753;52.520;13.450;2023-07-29T00:31:27;284.60;;;171.40;;
13368;SDS011;6753;52.520;13.450;2023-07-29T00:31:38;275.52;;;166.90;;
13368;SDS011;6753;52.520;13.450;2023-07-29T00:31:49;266.00;;;163.73;;
13368;SDS011;6753;52.520;13.450;2023-07-29T00:32:01;257.27;;;159.52;;
13368;SDS011;6753;52.520;13.450;2023-07-29T00:32:11;254.27;;;158.98;;
13368;SDS011;6753;52.520;13.450;2023-07-29T00:32:22;251.23;;;158.23;;
13368;SDS011;6753;52.520;13.450;2023-07-29T00:32:33;246.93;;;154.48;;
13368;SDS011;6753;52.520;13.450;2023-07-29T00:32:46;242.07;;;151.45;;
13368;SDS011;6753;52.520;13.450;2023-07-29T00:32:57;245.70;;;152.48;;
13368;SDS011;6753;52.520;13.450;2023-07-29T00:33:08;247.90;;;153.20;;
13368;SDS011;6753;52.520;13.450;2023-07-29T00:33:18;245.57;;;151.63;;
13368;SDS011;6753;52.520;13.450;2023-07-29T00:33:30;245.55;;;150.60;;
13368;SDS011;6753;52.520;13.450;2023-07-29T00:33:42;241.77;;;148.77;;
13368;SDS011;6753;52.520;13.450;2023-07-29T00:33:53;237.80;;;145.93;;
13368;SDS011;6753;52.520;13.450;2023-07-29T00:34:04;231.13;;;141.40;;
13368;SDS011;6753;52.520;13.450;2023-07-29T00:34:14;225.43;;;137.70;;
13368;SDS011;6753;52.520;13.450;2023-07-29T00:34:29;217.73;;;132.80;;
13368;SDS011;6753;52.520;13.450;2023-07-29T00:34:40;215.50;;;130.77;;
13368;SDS011;6753;52.520;13.450;2023-07-29T00:34:51;218.23;;;133.13;;
13368;SDS011;6753;52.520;13.450;2023-07-29T00:35:02;231.98;;;140.60;;
13368;SDS011;6753;52.520;13.450;2023-07-29T00:35:13;241.27;;;146.40;;
13368;SDS011;6753;52.520;13.450;2023-07-29T00:35:25;242.77;;;149.13;;
13368;SDS011;6753;52.520;13.450;2023-07-29T00:35:36;248.15;;;152.85;;
13368;SDS011;6753;52.520;13.450;2023-07-29T00:35:47;255.88;;;156.95;;
13368;SDS011;6753;52.520;13.450;2023-07-29T00:35:58;253.18;;;155.27;;
13368;SDS011;6753;52.520;13.450;2023-07-29T00:36:11;252.15;;;153.77;;
13368;SDS011;6753;52.520;13.450;2023-07-29T00:36:22;251.30;;;154.95;;
13368;SDS011;6753;52.520;13.450;2023-07-29T00:36:33;254.27;;;156.40;;
13368;SDS011;6753;52.520;13.450;2023-07-29T00:36:44;253.97;;;157.53;;
13368;SDS011;6753;52.520;13.450;2023-07-29T00:36:54;251.98;;;156.82;;
13368;SDS011;6753;52.520;13.450;2023-07-29T00:37:05;250.57;;;157.45;;
13368;SDS011;6753;52.520;13.450;2023-07-29T00:37:16;250.63;;;156.87;;
13368;SDS011;6753;52.520;13.450;2023-07-29T00:37:27;251.05;;;155.45;;
13368;SDS011;6753;52.520;13.450;2023-07-29T00:37:40;245.52;;;152.43;;
13368;SDS011;6753;52.520;13.450;2023-07-29T00:37:50;242.18;;;148.77;;
13368;SDS011;6753;52.520;13.450;2023-07-29T00:38:01;234.35;;;144.35;;
13368;SDS011;6753;52.520;13.450;2023-07-29T00:38:12;232.47;;;142.70;;
13368;SDS011;6753;52.520;13.450;2023-07-29T00:38:23;227.60;;;140.80;;
13368;SDS011;6753;52.520;13.450;2023-07-29T00:38:33;225.82;;;137.88;;
13368;SDS011;6753;52.520;13.450;2023-07-29T00:38:44;218.50;;;134.32;;
13368;SDS011;6753;52.520;13.450;2023-07-29T00:38:55;213.97;;;131.83;;
13368;SDS011;6753;52.520;13.450;2023-07-29T00:39:07;204.10;;;126.40;;
13368;SDS011;6753;52.520;13.450;2023-07-29T00:39:18;194.20;;;119.35;;
13368;SDS011;6753;52.520;13.450;2023-07-29T00:39:29;185.10;;;114.50;;
13368;SDS011;6753;52.520;13.450;2023-07-29T00:39:40;178.95;;;110.43;;
13368;SDS011;6753;52.520;13.450;2023-07-29T00:39:51;171.43;;;105.53;;
13368;SDS011;6753;52.520;13.450;2023-07-29T00:40:01;167.82;;;103.40;;
13368;SDS011;6753;52.520;13.450;2023-07-29T00:40:14;167.68;;;103.03;;
13368;SDS011;6753;52.520;13.450;2023-07-29T00:40:29;168.23;;;104.00;;
13368;SDS011;6753;52.520;13.450;2023-07-29T00:40:40;174.02;;;109.05;;
13368;SDS011;6753;52.520;13.450;2023-07-29T00:40:51;179.10;;;112.97;;
13368;SDS011;6753;52.520;13.450;2023-07-29T00:41:03;182.40;;;114.50;;
13368;SDS011;6753;52.520;13.450;2023-07-29T00:41:14;183.68;;;115.50;;
13368;SDS011;6753;52.520;13.450;2023-07-29T00:41:26;183.52;;;115.70;;
13368;SDS011;6753;52.520;13.450;2023-07-29T00:41:36;180.93;;;113.37;;
13368;SDS011;6753;52.520;13.450;2023-07-29T00:41:47;183.30;;;114.47;;
13368;SDS011;6753;52.520;13.450;2023-07-29T00:41:58;182.55;;;114.65;;
13368;SDS011;6753;52.520;13.450;2023-07-29T00:42:09;182.80;;;116.32;;
13368;SDS011;6753;52.520;13.450;2023-07-29T00:42:20;188.23;;;120.35;;
13368;SDS011;6753;52.520;13.450;2023-07-29T00:42:30;196.93;;;125.60;;
13368;SDS011;6753;52.520;13.450;2023-07-29T00:42:41;200.25;;;128.23;;
13368;SDS011;6753;52.520;13.450;2023-07-29T00:42:52;201.10;;;127.20;;
13368;SDS011;6753;52.520;13.450;2023-07-29T00:43:04;199.05;;;124.75;;
13368;SDS011;6753;52.520;13.450;2023-07-29T00:43:15;190.93;;;118.18;;
13368;SDS011;6753;52.520;13.450;2023-07-29T00:43:26;180.77;;;110.70;;
13368;SDS011;6753;52.520;13.450;2023-07-29T00:43:36;172.68;;;105.85;;
13368;SDS011;6753;52.520;13.450;2023-07-29T00:43:47;162.40;;;99.75;;
13368;SDS011;6753;52.520;13.450;2023-07-29T00:43:58;151.60;;;93.97;;
13368;SDS011;6753;52.520;13.450;2023-07-29T00:44:09;148.63;;;91.60;;
13368;SDS011;6753;52.520;13.450;2023-07-29T00:44:19;149.55;;;92.72;;
13368;SDS011;6753;52.520;13.450;2023-07-29T00:44:31;152.75;;;96.15;;
13368;SDS011;6753;52.520;13.450;2023-07-29T00:44:42;153.18;;;96.93;;
13368;SDS011;6753;52.520;13.450;2023-07-29T00:44:53;160.67;;;101.33;;
13368;SDS011;6753;52.520;13.450;2023-07-29T00:45:04;165.52;;;104.70;;
13368;SDS011;6753;52.520;13.450;2023-07-29T00:45:17;170.73;;;108.25;;
13368;SDS011;6753;52.520;13.450;2023-07-29T00:45:28;167.15;;;105.95;;
13368;SDS011;6753;52.520;13.450;2023-07-29T00:45:40;168.82;;;106.07;;
13368;SDS011;6753;52.520;13.450;2023-07-29T00:45:53;164.90;;;103.75;;
13368;SDS011;6753;52.520;13.450;2023-07-29T00:46:04;162.65;;;102.97;;
13368;SDS011;6753;52.520;13.450;2023-07-29T00:46:15;160.57;;;101.10;;
13368;SDS011;6753;52.520;13.450;2023-07-29T00:46:28;161.00;;;100.82;;
13368;SDS011;6753;52.520;13.450;2023-07-29T00:46:39;158.02;;;98.40;;
13368;SDS011;6753;52.520;13.450;2023-07-29T00:46:51;157.50;;;97.30;;
13368;SDS011;6753;52.520;13.450;2023-07-29T00:47:03;157.77;;;96.60;;
13368;SDS011;6753;52.520;13.450;2023-07-29T00:47:16;154.07;;;95.13;;
13368;SDS011;6753;52.520;13.450;2023-07-29T00:47:27;151.00;;;91.90;;
13368;SDS011;6753;52.520;13.450;2023-07-29T00:47:38;149.27;;;90.33;;
13368;SDS011;6753;52.520;13.450;2023-07-29T00:47:51;147.57;;;90.05;;
13368;SDS011;6753;52.520;13.450;2023-07-29T00:48:02;146.38;;;88.68;;
13368;SDS011;6753;52.520;13.450;2023-07-29T00:48:14;142.77;;;86.53;;
13368;SDS011;6753;52.520;13.450;2023-07-29T00:48:25;142.70;;;85.72;;
13368;SDS011;6753;52.520;13.450;2023-07-29T00:48:36;146.45;;;87.45;;
13368;SDS011;6753;52.520;13.450;2023-07-29T00:48:48;142.25;;;85.30;;
13368;SDS011;6753;52.520;13.450;2023-07-29T00:48:58;138.17;;;83.80;;
13368;SDS011;6753;52.520;13.450;2023-07-29T00:49:09;135.88;;;81.95;;
13368;SDS011;6753;52.520;13.450;2023-07-29T00:49:20;131.70;;;79.88;;
13368;SDS011;6753;52.520;13.450;2023-07-29T00:49:31;125.22;;;77.03;;
13368;SDS011;6753;52.520;13.450;2023-07-29T00:49:45;124.30;;;74.70;;
13368;SDS011;6753;52.520;13.450;2023-07-29T00:49:56;122.38;;;73.07;;
13368;SDS011;6753;52.520;13.450;2023-07-29T00:50:07;125.45;;;73.47;;
13368;SDS011;6753;52.520;13.450;2023-07-29T00:50:20;125.68;;;73.45;;
13368;SDS011;6753;52.520;13.450;2023-07-29T00:50:32;126.65;;;73.57;;
13368;SDS011;6753;52.520;13.450;2023-07-29T00:50:42;128.93;;;74.30;;
13368;SDS011;6753;52.520;13.450;2023-07-29T00:50:54;132.88;;;74.82;;
13368;SDS011;6753;52.520;13.450;2023-07-29T00:51:05;132.88;;;74.68;;
13368;SDS011;6753;52.520;13.450;2023-07-29T00:51:17;135.10;;;75.80;;
13368;SDS011;6753;52.520;13.450;2023-07-29T00:51:28;136.18;;;75.95;;
13368;SDS011;6753;52.520;13.450;2023-07-29T00:51:38;133.32;;;75.68;;
13368;SDS011;6753;52.520;13.450;2023-07-29T00:51:49;134.25;;;77.63;;
13368;SDS011;6753;52.520;13.450;2023-07-29T00:52:00;138.77;;;80.80;;
13368;SDS011;6753;52.520;13.450;2023-07-29T00:52:11;138.25;;;81.88;;
13368;SDS011;6753;52.520;13.450;2023-07-29T00:52:22;140.00;;;82.40;;
13368;SDS011;6753;52.520;13.450;2023-07-29T00:52:33;141.75;;;82.45;;
13368;SDS011;6753;52.520;13.450;2023-07-29T00:52:44;142.65;;;80.10;;
13368;SDS011;6753;52.520;13.450;2023-07-29T00:52:55;141.18;;;78.68;;
13368;SDS011;6753;52.520;13.450;2023-07-29T00:53:08;136.75;;;76.82;;
13368;SDS011;6753;52.520;13.450;2023-07-29T00:53:18;139.13;;;77.40;;
13368;SDS011;6753;52.520;13.450;2023-07-29T00:53:29;138.88;;;77.72;;
13368;SDS011;6753;52.520;13.450;2023-07-29T00:53:40;140.73;;;80.63;;
13368;SDS011;6753;52.520;13.450;2023-07-29T00:53:51;136.57;;;82.15;;
13368;SDS011;6753;52.520;13.450;2023-07-29T00:54:02;132.07;;;79.38;;
13368;SDS011;6753;52.520;13.450;2023-07-29T00:54:13;128.40;;;77.70;;
13368;SDS011;6753;52.520;13.450;2023-07-29T00:54:24;124.75;;;75.80;;
13368;SDS011;6753;52.520;13.450;2023-07-29T00:54:35;123.15;;;74.80;;
13368;SDS011;6753;52.520;13.450;2023-07-29T00:54:46;121.55;;;73.57;;
13368;SDS011;6753;52.520;13.450;2023-07-29T00:54:57;125.30;;;74.67;;
13368;SDS011;6753;52.520;13.450;2023-07-29T00:55:08;125.63;;;75.57;;
13368;SDS011;6753;52.520;13.450;2023-07-29T00:55:19;130.05;;;77.53;;
13368;SDS011;6753;52.520;13.450;2023-07-29T00:55:30;131.95;;;79.55;;
13368;SDS011;6753;52.520;13.450;2023-07-29T00:55:41;126.15;;;77.28;;
13368;SDS011;6753;52.520;13.450;2023-07-29T00:55:52;125.22;;;76.78;;
13368;SDS011;6753;52.520;13.450;2023-07-29T00:56:03;123.85;;;76.50;;
13368;SDS011;6753;52.520;13.450;2023-07-29T00:56:15;127.55;;;77.82;;
13368;SDS011;6753;52.520;13.450;2023-07-29T00:56:29;125.70;;;75.97;;
13368;SDS011;6753;52.520;13.450;2023-07-29T00:56:40;132.30;;;79.07;;
13368;SDS011;6753;52.520;13.450;2023-07-29T00:56:51;134.45;;;78.28;;
13368;SDS011;6753;52.520;13.450;2023-07-29T00:57:02;132.88;;;76.22;;
13368;SDS011;6753;52.520;13.450;2023-07-29T00:57:13;125.43;;;72.35;;
13368;SDS011;6753;52.520;13.450;2023-07-29T00:57:26;124.93;;;71.50;;
13368;SDS011;6753;52.520;13.450;2023-07-29T00:57:39;124.03;;;70.23;;
13368;SDS011;6753;52.520;13.450;2023-07-29T00:57:50;120.25;;;70.35;;
13368;SDS011;6753;52.520;13.450;2023-07-29T00:58:03;119.97;;;71.25;;
13368;SDS011;6753;52.520;13.450;2023-07-29T00:58:14;125.82;;;74.38;;
13368;SDS011;6753;52.520;13.450;2023-07-29T00:58:26;124.53;;;75.13;;
13368;SDS011;6753;52.520;13.450;2023-07-29T00:58:36;124.45;;;75.95;;
13368;SDS011;6753;52.520;13.450;2023-07-29T00:58:49;130.23;;;76.88;;
13368;SDS011;6753;52.520;13.450;2023-07-29T00:59:01;130.45;;;77.60;;
13368;SDS011;6753;52.520;13.450;2023-07-29T00:59:12;127.05;;;76.40;;
13368;SDS011;6753;52.520;13.450;2023-07-29T00:59:23;127.05;;;75.50;;
13368;SDS011;6753;52.520;13.450;2023-07-29T00:59:34;121.40;;;72.40;;
13368;SDS011;6753;52.520;13.450;2023-07-29T00:59:45;112.00;;;68.72;;
13368;SDS011;6753;52.520;13.450;2023-07-29T00:59:56;110.35;;;67.20;;
13368;SDS011;6753;52.520;13.450;2023-07-29T01:00:08;109.82;;;66.60;;
13368;SDS011;6753;52.520;13.450;2023-07-29T01:00:19;107.07;;;65.60;;
13368;SDS011;6753;52.520;13.450;2023-07-29T01:00:31;107.95;;;65.53;;
13368;SDS011;6753;52.520;13.450;2023-07-29T01:00:42;110.63;;;67.00;;
13368;SDS011;6753;52.520;13.450;2023-07-29T01:00:53;109.73;;;66.27;;
13368;SDS011;6753;52.520;13.450;2023-07-29T01:01:05;108.45;;;65.05;;
13368;SDS011;6753;52.520;13.450;2023-07-29T01:01:15;106.88;;;64.20;;
13368;SDS011;6753;52.520;13.450;2023-07-29T01:01:27;104.80;;;64.15;;
13368;SDS011;6753;52.520;13.450;2023-07-29T01:01:38;104.30;;;63.92;;
13368;SDS011;6753;52.520;13.450;2023-07-29T01:01:49;103.82;;;63.50;;
13368;SDS011;6753;52.520;13.450;2023-07-29T01:02:00;102.50;;;63.63;;
13368;SDS011;6753;52.520;13.450;2023-07-29T01:02:10;101.22;;;63.15;;
13368;SDS011;6753;52.520;13.450;2023-07-29T01:02:21;100.33;;;61.47;;
13368;SDS011;6753;52.520;13.450;2023-07-29T01:02:32;99.40;;;60.55;;
13368;SDS011;6753;52.520;13.450;2023-07-29T01:02:44;98.10;;;60.33;;
13368;SDS011;6753;52.520;13.450;2023-07-29T01:02:56;100.18;;;60.50;;
13368;SDS011;6753;52.520;13.450;2023-07-29T01:03:07;101.25;;;61.03;;
13368;SDS011;6753;52.520;13.450;2023-07-29T01:03:18;103.15;;;63.30;;
13368;SDS011;6753;52.520;13.450;2023-07-29T01:03:29;106.18;;;64.10;;
13368;SDS011;6753;52.520;13.450;2023-07-29T01:03:39;106.83;;;64.60;;
13368;SDS011;6753;52.520;13.450;2023-07-29T01:03:50;103.28;;;63.00;;
13368;SDS011;6753;52.520;13.450;2023-07-29T01:04:01;103.60;;;62.45;;